Utilizamos cookies propias y de terceros para ofrecer nuestros servicios, recoger información estadística e incluir publicidad. Si continua navegando acepta su instalación y uso. Puede cambiar la configuración u obtener más información en nuestra ACEPTAR | Más información

 INFORMACIÓN METAR y TAF
METAR FOR LEBA
ADDS - METARS form results

(1842 UTC 12 August 2020)
Data provider http://aviationweather.gov/metar/data/
 
METAR text: LEBA 121830Z AUTO 24006KT 210V280 CAVOK 29/14 Q1013
Conditions at: LEBA (CORDOBA AIRPORT , ES) observed 1830 UTC 12 August 2020
Temperature: 29.0°C (84°F)
Dewpoint: 14.0°C (57°F) [RH = 40%]
Pressure (altimeter): 29.91 inches Hg (1013.0 mb)
Winds: from the WSW (240 degrees) at 7 MPH (6 knots; 3.1 m/s)
Visibility: 6 or more miles (10+ km)
Ceiling: ceiling and visibility are OK
Clouds: unknown
Weather: no significant weather observed at this time

METAR text: LEBA 121800Z 24008KT 210V280 CAVOK 29/14 Q1013
Conditions at: LEBA (CORDOBA AIRPORT , ES) observed 1800 UTC 12 August 2020
Temperature: 29.0°C (84°F)
Dewpoint: 14.0°C (57°F) [RH = 40%]
Pressure (altimeter): 29.91 inches Hg (1013.0 mb)
Winds: from the WSW (240 degrees) at 9 MPH (8 knots; 4.1 m/s)
Visibility: 6 or more miles (10+ km)
Ceiling: ceiling and visibility are OK
Clouds: unknown
Weather: no significant weather observed at this time

Forecast for: LEBA (CORDOBA AIRPORT , ES)
Text: TAF LEBA 121400Z 1215/1315 27009KT CAVOK TX35/1315Z TN19/1306Z
Forecast period: 1500 UTC 12 August 2020 to 1500 UTC 13 August 2020
Forecast type: FROM: standard forecast or significant change
Winds: from the W (270 degrees) at 10 MPH (9 knots; 4.6 m/s)
Visibility: 6 or more miles (10+ km)
Ceiling: unknown
Clouds: missing
Weather: no significant weather forecast for this period

 MAPA DE AEROPUERTO

 INFORMACIÓN DE PISTA
Pista 03 Longitud 4527 ft Ancho 148 ft
Elevación 293 ft Umbral desplazado 0 ft Rumbo de pista 29
Pista 21 Longitud 4527 ft Ancho 148 ft
Elevación 297 ft Umbral desplazado 0 ft Rumbo de pista 209

 FRECUANCIAS DEL AEROPUERTO
Tipo CTAF Nombre CTAF Frecuencia 118.3 MHZ

 RADIO AYUDAS DEL AEROPUERTO
Tipo VOR-DME Nombre Cordoba Frecuencia 112400 KHZ
Tipo NDB Nombre Cordoba Frecuencia 366 KHZ

© Todos los derechos reservados. Aviso Legal | Política de Privacidad | Política de cookies |